Time;durP1;ratioP1;P1;durP2;ratioP2;P2;SDS_P1;SDS_P2;PMS_P1;PMS_P2;Temp;Humidity;BMP_temperature;BMP_pressure;BME280_temperature;BME280_humidity;BME280_pressure;Samples;Min_cycle;Max_cycle;Signal;HPM_P1;HPM_P2
2023/02/14 00:03:07;;;;;;;5.28;4.15;;;14.80;68.70;;;;;;10491497;28;20012;-57
2023/02/14 00:08:08;;;;;;;6.28;4.70;;;14.80;68.50;;;;;;10473795;28;20024;-57
2023/02/14 00:13:08;;;;;;;5.05;4.07;;;14.80;68.50;;;;;;10473568;28;20040;-57
2023/02/14 00:18:09;;;;;;;6.63;4.75;;;14.80;68.50;;;;;;10490145;28;20045;-56
2023/02/14 00:23:10;;;;;;;5.93;3.85;;;14.80;68.30;;;;;;10473125;28;20116;-57
2023/02/14 00:28:10;;;;;;;6.47;4.85;;;14.80;68.50;;;;;;10490407;28;20048;-57
2023/02/14 00:33:11;;;;;;;5.88;4.28;;;14.70;68.20;;;;;;10472840;28;20436;-57
2023/02/14 00:38:12;;;;;;;6.75;5.68;;;14.70;68.20;;;;;;10490159;28;20069;-56
2023/02/14 00:43:12;;;;;;;7.05;5.43;;;14.70;68.30;;;;;;10471999;28;20119;-56
2023/02/14 00:48:13;;;;;;;6.13;5.20;;;14.70;68.20;;;;;;10471629;28;20535;-57
2023/02/14 00:53:13;;;;;;;5.40;4.30;;;14.70;68.70;;;;;;10489578;28;20127;-56
2023/02/14 00:58:14;;;;;;;5.63;4.82;;;14.70;68.10;;;;;;10478350;28;20052;-56
2023/02/14 01:03:15;;;;;;;5.78;4.53;;;14.70;68.00;;;;;;10476259;28;20020;-59
2023/02/14 01:08:16;;;;;;;6.90;4.78;;;14.60;68.10;;;;;;10446450;28;20025;-57
2023/02/14 01:13:18;;;;;;;6.15;4.35;;;14.60;67.90;;;;;;10471055;28;20132;-57
2023/02/14 01:18:19;;;;;;;5.72;5.03;;;14.60;68.00;;;;;;10471900;28;20027;-57
2023/02/14 01:23:19;;;;;;;6.43;5.03;;;14.60;68.00;;;;;;10470392;28;20116;-56
2023/02/14 01:28:20;;;;;;;4.93;3.92;;;14.60;67.80;;;;;;10489436;28;20081;-57
2023/02/14 01:33:21;;;;;;;5.60;4.85;;;14.60;67.80;;;;;;10488364;28;20097;-56
2023/02/14 01:38:21;;;;;;;7.10;5.25;;;14.60;67.90;;;;;;10470386;28;20051;-57
2023/02/14 01:43:22;;;;;;;5.38;4.43;;;14.60;67.70;;;;;;10493782;28;20103;-57
2023/02/14 01:48:23;;;;;;;6.85;5.15;;;14.50;67.60;;;;;;10469985;28;20430;-57
2023/02/14 01:53:28;;;;;;;6.40;4.90;;;14.50;67.50;;;;;;10488330;28;20039;-57
2023/02/14 01:58:34;;;;;;;6.60;4.55;;;14.50;67.70;;;;;;10479312;28;20040;-56
2023/02/14 02:03:41;;;;;;;5.93;4.53;;;14.50;67.60;;;;;;10483448;28;20166;-57
2023/02/14 02:09:07;;;;;;;5.10;4.03;;;14.50;67.50;;;;;;10471480;28;20022;-57
2023/02/14 02:14:19;;;;;;;5.63;4.30;;;14.50;67.60;;;;;;10471446;28;20067;-56
2023/02/14 02:19:53;;;;;;;5.60;4.55;;;14.50;67.40;;;;;;10476465;28;20019;-57
2023/02/14 02:25:38;;;;;;;5.82;4.90;;;14.50;67.20;;;;;;10472802;28;20512;-57
2023/02/14 02:31:13;;;;;;;5.70;4.60;;;14.50;67.30;;;;;;10485332;28;20049;-56
2023/02/14 02:36:47;;;;;;;4.70;4.00;;;14.40;67.30;;;;;;10480106;28;20040;-57
2023/02/14 02:42:30;;;;;;;6.45;5.20;;;14.40;67.20;;;;;;10502339;28;20140;-57
2023/02/14 02:47:40;;;;;;;6.53;5.00;;;14.50;66.30;;;;;;10494678;28;20024;-58
2023/02/14 02:53:24;;;;;;;5.63;4.68;;;14.80;65.60;;;;;;10460488;28;20032;-57
2023/02/14 02:58:52;;;;;;;5.35;3.92;;;15.00;64.60;;;;;;10414647;28;20036;-57
2023/02/14 03:09:18;;;;;;;5.63;4.25;;;15.50;63.20;;;;;;10484829;28;20028;-57
2023/02/14 03:14:31;;;;;;;5.93;4.80;;;15.80;62.40;;;;;;10501075;28;20028;-56
2023/02/14 03:20:14;;;;;;;5.07;3.92;;;16.00;61.70;;;;;;10483001;28;20052;-57
2023/02/14 03:25:39;;;;;;;4.32;3.35;;;16.10;61.30;;;;;;10466091;28;20540;-57
2023/02/14 03:31:12;;;;;;;4.80;3.92;;;16.20;61.00;;;;;;10476155;28;20059;-56
2023/02/14 03:36:20;;;;;;;5.05;3.70;;;16.30;61.40;;;;;;10475205;28;20036;-57
2023/02/14 03:41:28;;;;;;;4.45;3.38;;;16.40;60.50;;;;;;10462663;28;20024;-56
2023/02/14 03:46:51;;;;;;;4.70;3.55;;;16.50;60.40;;;;;;10474937;28;20074;-57
2023/02/14 03:51:55;;;;;;;4.85;2.92;;;16.50;60.30;;;;;;10476150;28;20435;-57
2023/02/14 03:57:13;;;;;;;4.57;3.35;;;16.50;60.10;;;;;;10460441;28;20058;-56
2023/02/14 04:02:30;;;;;;;3.72;2.90;;;16.60;60.20;;;;;;10480846;28;20024;-57
2023/02/14 04:07:31;;;;;;;5.03;3.17;;;16.60;60.20;;;;;;10474689;28;20060;-57
2023/02/14 04:12:31;;;;;;;4.80;3.63;;;16.60;60.10;;;;;;10503823;28;20047;-57
2023/02/14 04:22:51;;;;;;;4.90;3.35;;;16.70;59.70;;;;;;10500807;28;20028;-56
2023/02/14 04:27:52;;;;;;;4.97;3.17;;;16.70;59.70;;;;;;10490885;28;20048;-57
2023/02/14 04:32:52;;;;;;;4.57;3.00;;;16.70;59.60;;;;;;10479480;28;20559;-57
2023/02/14 04:37:53;;;;;;;3.30;2.80;;;16.80;59.50;;;;;;10490118;28;20111;-56
2023/02/14 04:42:54;;;;;;;4.85;3.08;;;16.90;59.40;;;;;;10462590;28;20025;-56
2023/02/14 04:47:54;;;;;;;5.13;2.70;;;16.90;59.70;;;;;;10454813;28;20021;-57
2023/02/14 04:52:55;;;;;;;4.25;2.65;;;16.90;59.90;;;;;;10470086;28;20124;-57
2023/02/14 04:57:56;;;;;;;3.47;2.63;;;16.90;60.00;;;;;;10473171;28;20100;-57
2023/02/14 05:02:57;;;;;;;5.18;3.00;;;17.00;59.90;;;;;;10454036;28;20051;-56
2023/02/14 05:07:57;;;;;;;4.60;2.63;;;16.90;59.80;;;;;;10454978;28;20620;-56
2023/02/14 05:12:59;;;;;;;3.60;2.40;;;17.00;59.80;;;;;;10471012;28;20120;-57
2023/02/14 05:18:01;;;;;;;3.60;2.63;;;17.00;59.70;;;;;;10469581;28;20033;-55
2023/02/14 05:23:04;;;;;;;4.38;3.15;;;17.00;59.60;;;;;;10488714;28;20017;-57
2023/02/14 05:28:05;;;;;;;4.95;3.38;;;17.10;59.50;;;;;;10487205;28;20055;-56
2023/02/14 05:33:06;;;;;;;4.10;2.53;;;17.00;59.40;;;;;;10449488;28;20672;-56
2023/02/14 05:38:07;;;;;;;3.78;2.88;;;17.00;59.40;;;;;;10453329;28;20562;-57
2023/02/14 05:43:08;;;;;;;5.88;2.50;;;16.90;59.50;;;;;;10466266;28;20052;-57
2023/02/14 05:48:09;;;;;;;3.60;2.30;;;17.00;59.60;;;;;;10462647;28;20032;-55
2023/02/14 05:53:10;;;;;;;3.65;2.40;;;16.90;59.80;;;;;;10476760;28;20615;-56
2023/02/14 05:58:11;;;;;;;3.45;2.53;;;16.80;60.00;;;;;;10494418;28;20016;-56
2023/02/14 06:03:12;;;;;;;3.58;2.35;;;16.80;60.20;;;;;;10454138;28;20023;-55
2023/02/14 06:08:12;;;;;;;5.10;2.50;;;16.70;60.70;;;;;;10479953;28;20017;-55
2023/02/14 06:13:13;;;;;;;4.30;2.70;;;16.70;61.60;;;;;;10481575;28;20032;-54
2023/02/14 06:18:14;;;;;;;5.18;3.10;;;16.60;62.40;;;;;;10479221;28;20728;-55
2023/02/14 06:23:14;;;;;;;4.38;2.60;;;16.60;62.70;;;;;;10496950;28;20031;-56
2023/02/14 06:28:15;;;;;;;8.05;3.13;;;16.60;62.20;;;;;;10477512;28;20115;-56
2023/02/14 06:33:16;;;;;;;10.75;3.22;;;16.50;62.20;;;;;;10477117;28;20083;-57
2023/02/14 06:38:16;;;;;;;11.07;3.70;;;16.40;62.80;;;;;;10494534;28;20163;-57
2023/02/14 06:43:17;;;;;;;25.50;4.55;;;16.40;62.80;;;;;;10473522;28;20598;-57
2023/02/14 06:48:18;;;;;;;18.33;4.50;;;16.40;63.20;;;;;;10472700;28;20059;-56
2023/02/14 06:53:19;;;;;;;18.02;4.75;;;16.40;63.00;;;;;;10477821;28;20107;-54
2023/02/14 06:58:20;;;;;;;13.38;4.95;;;16.40;63.00;;;;;;10465391;28;20095;-57
2023/02/14 07:03:21;;;;;;;11.75;4.40;;;16.40;63.00;;;;;;10493741;28;20035;-57
2023/02/14 07:08:22;;;;;;;13.98;4.20;;;16.50;62.40;;;;;;10499113;28;20696;-58
2023/02/14 07:13:24;;;;;;;13.60;4.93;;;16.50;62.10;;;;;;10467734;28;20117;-57
2023/02/14 07:18:24;;;;;;;14.77;4.70;;;16.40;62.80;;;;;;10474988;28;20791;-56
2023/02/14 07:23:25;;;;;;;13.48;4.75;;;16.30;62.20;;;;;;10493361;28;20169;-57
2023/02/14 07:28:25;;;;;;;8.27;3.70;;;16.30;62.20;;;;;;10474074;28;20111;-56
2023/02/14 07:33:26;;;;;;;13.77;4.80;;;16.20;62.20;;;;;;10491775;28;20202;-56
2023/02/14 07:38:29;;;;;;;7.85;3.90;;;16.10;62.20;;;;;;10473283;28;20432;-57
2023/02/14 07:43:30;;;;;;;8.63;4.25;;;16.10;62.20;;;;;;10502496;28;20020;-54
2023/02/14 07:48:30;;;;;;;8.90;4.03;;;16.20;62.00;;;;;;10486764;28;20025;-56
2023/02/14 07:53:31;;;;;;;9.27;3.80;;;16.20;61.70;;;;;;10469235;28;20424;-56
2023/02/14 07:58:32;;;;;;;6.35;3.13;;;16.20;61.70;;;;;;10486854;28;20460;-56
2023/02/14 08:03:32;;;;;;;6.90;3.72;;;16.20;61.70;;;;;;10468336;28;20111;-56
2023/02/14 08:08:33;;;;;;;8.80;3.75;;;16.20;61.80;;;;;;10426816;28;20141;-57
2023/02/14 08:13:33;;;;;;;5.85;3.72;;;16.10;61.80;;;;;;10471032;28;20038;-56
2023/02/14 08:18:40;;;;;;;6.45;3.30;;;16.20;61.70;;;;;;10488682;28;20107;-55
2023/02/14 08:23:41;;;;;;;8.57;3.75;;;16.20;61.60;;;;;;10470487;28;20051;-57
2023/02/14 08:28:43;;;;;;;7.95;3.70;;;16.10;61.80;;;;;;10470003;28;20186;-58
2023/02/14 08:33:44;;;;;;;5.00;3.47;;;16.10;61.80;;;;;;10469926;28;20045;-56
2023/02/14 08:38:48;;;;;;;6.88;3.72;;;16.00;62.50;;;;;;10469474;28;20012;-56
2023/02/14 08:43:49;;;;;;;6.20;3.17;;;16.00;62.40;;;;;;10453296;28;20028;-56
2023/02/14 08:48:52;;;;;;;6.75;3.95;;;15.90;62.70;;;;;;10469137;28;20017;-56
2023/02/14 08:53:53;;;;;;;4.38;2.45;;;15.90;62.80;;;;;;10486984;28;20028;-56
2023/02/14 08:58:54;;;;;;;8.15;3.45;;;15.90;63.10;;;;;;10469205;28;20599;-57
2023/02/14 09:03:55;;;;;;;6.85;2.92;;;15.70;64.00;;;;;;10487026;28;20029;-56
2023/02/14 09:08:56;;;;;;;3.47;2.45;;;15.70;64.50;;;;;;10468956;28;20021;-56
2023/02/14 09:13:57;;;;;;;5.10;2.97;;;15.70;64.70;;;;;;10486528;28;20085;-56
2023/02/14 09:18:57;;;;;;;5.05;2.90;;;15.60;64.80;;;;;;10467970;28;20012;-57
2023/02/14 09:23:58;;;;;;;5.68;2.65;;;15.60;64.90;;;;;;10468211;28;20021;-55
2023/02/14 09:28:59;;;;;;;4.13;2.88;;;15.60;65.00;;;;;;10486491;28;20063;-56
2023/02/14 09:39:18;;;;;;;4.78;3.03;;;15.60;65.20;;;;;;10485393;28;20029;-56
2023/02/14 09:44:41;;;;;;;4.38;3.10;;;15.50;65.20;;;;;;10467868;28;20119;-56
2023/02/14 09:49:43;;;;;;;4.20;2.83;;;15.50;65.20;;;;;;10451316;28;20021;-57
2023/02/14 09:54:52;;;;;;;7.75;3.78;;;15.50;65.40;;;;;;10485272;28;20248;-57
2023/02/14 10:00:21;;;;;;;3.57;2.50;;;15.50;65.20;;;;;;10451241;28;20498;-57
2023/02/14 10:05:47;;;;;;;5.38;2.97;;;15.60;65.10;;;;;;10485665;28;20032;-56
2023/02/14 10:11:07;;;;;;;4.78;2.90;;;15.60;65.00;;;;;;10485002;28;20091;-56
2023/02/14 10:16:31;;;;;;;5.07;2.65;;;15.60;65.10;;;;;;10467551;28;20032;-57
2023/02/14 10:21:47;;;;;;;6.13;2.80;;;15.60;65.10;;;;;;10472587;28;20028;-57
2023/02/14 10:26:49;;;;;;;4.18;2.65;;;15.60;65.20;;;;;;10467728;28;20029;-55
2023/02/14 10:32:03;;;;;;;6.60;3.10;;;15.60;65.30;;;;;;10485400;28;20055;-56
2023/02/14 10:37:30;;;;;;;5.53;2.72;;;15.60;65.30;;;;;;10466929;28;20028;-56
2023/02/14 10:42:49;;;;;;;4.22;2.78;;;15.60;65.40;;;;;;10466432;28;20387;-56
2023/02/14 10:47:58;;;;;;;4.32;2.80;;;15.60;65.50;;;;;;10467776;28;20123;-57
2023/02/14 10:53:24;;;;;;;4.43;2.30;;;15.60;65.50;;;;;;10491718;28;20032;-56
2023/02/14 10:58:30;;;;;;;4.07;2.38;;;15.60;65.50;;;;;;10491715;28;20708;-57
2023/02/14 11:03:33;;;;;;;5.18;3.88;;;15.60;65.60;;;;;;10457103;28;20009;-57
2023/02/14 11:08:38;;;;;;;5.03;3.00;;;15.60;65.60;;;;;;10474904;28;20028;-56
2023/02/14 11:13:41;;;;;;;4.88;3.05;;;15.70;65.60;;;;;;10475611;28;20028;-56
2023/02/14 11:18:42;;;;;;;4.10;3.25;;;15.70;65.50;;;;;;10477296;28;20041;-57
2023/02/14 11:23:48;;;;;;;3.83;2.65;;;15.60;65.60;;;;;;10475476;28;20021;-56
2023/02/14 11:29:11;;;;;;;5.90;3.45;;;15.60;65.70;;;;;;10475400;28;20020;-56
2023/02/14 11:34:40;;;;;;;3.50;2.47;;;15.70;65.70;;;;;;10475319;28;20422;-57
2023/02/14 11:39:41;;;;;;;3.88;2.58;;;15.70;65.70;;;;;;10486780;28;20020;-57
2023/02/14 11:44:55;;;;;;;4.90;2.70;;;15.70;65.70;;;;;;10484359;28;20032;-57
2023/02/14 11:50:09;;;;;;;4.07;3.05;;;15.70;65.70;;;;;;10481734;28;20025;-57
2023/02/14 11:55:28;;;;;;;3.97;2.72;;;15.70;65.60;;;;;;10475314;28;20048;-56
2023/02/14 12:00:30;;;;;;;3.85;2.78;;;15.80;65.60;;;;;;10479130;28;20040;-56
2023/02/14 12:05:42;;;;;;;5.18;3.83;;;15.80;68.40;;;;;;10489901;28;20028;-55
2023/02/14 12:10:42;;;;;;;5.68;3.47;;;16.00;66.60;;;;;;10474032;28;20017;-58
2023/02/14 12:15:43;;;;;;;7.15;3.45;;;16.20;68.80;;;;;;10490362;28;20021;-56
2023/02/14 12:21:39;;;;;;;8.95;4.38;;;16.50;67.70;;;;;;10492819;28;20024;-56
2023/02/14 12:26:49;;;;;;;5.70;3.28;;;16.80;66.40;;;;;;10448512;28;20588;-57
2023/02/14 12:31:50;;;;;;;6.82;3.60;;;16.60;64.70;;;;;;10493163;28;20488;-57
2023/02/14 12:37:26;;;;;;;4.15;2.90;;;16.20;65.90;;;;;;10481157;28;20107;-57
2023/02/14 12:42:42;;;;;;;6.90;3.35;;;16.20;66.80;;;;;;10401760;28;20028;-57
2023/02/14 12:48:30;;;;;;;4.80;2.97;;;16.20;66.20;;;;;;10471229;28;20035;-58
2023/02/14 12:53:41;;;;;;;11.38;3.88;;;16.10;66.50;;;;;;10488345;28;20079;-57
2023/02/14 12:58:55;;;;;;;7.82;4.05;;;16.10;66.90;;;;;;10487686;28;20588;-56
2023/02/14 13:04:42;;;;;;;5.05;3.55;;;16.10;66.80;;;;;;10469959;28;20028;-56
2023/02/14 13:10:12;;;;;;;7.13;3.97;;;16.10;66.90;;;;;;10494216;28;20024;-57
2023/02/14 13:15:26;;;;;;;8.10;5.05;;;16.10;66.80;;;;;;10491296;28;20597;-57
2023/02/14 13:20:37;;;;;;;5.85;4.00;;;16.10;66.80;;;;;;10452919;28;20028;-57
2023/02/14 13:25:48;;;;;;;10.13;5.03;;;16.10;66.70;;;;;;10470715;28;20539;-56
2023/02/14 13:30:49;;;;;;;9.73;4.15;;;16.10;66.80;;;;;;10486195;28;20040;-56
2023/02/14 13:35:54;;;;;;;7.00;4.00;;;16.10;66.80;;;;;;10495862;28;20089;-58
2023/02/14 13:40:57;;;;;;;6.28;3.70;;;16.10;66.70;;;;;;10453797;28;20040;-57
2023/02/14 13:45:58;;;;;;;6.95;3.88;;;16.10;66.70;;;;;;10471082;28;20884;-57
2023/02/14 13:51:04;;;;;;;6.40;3.92;;;16.10;66.90;;;;;;10488106;28;20020;-57
2023/02/14 13:56:10;;;;;;;7.13;3.88;;;16.10;66.80;;;;;;10478181;28;20097;-56
2023/02/14 14:01:49;;;;;;;5.72;3.63;;;16.10;66.90;;;;;;10469875;28;20103;-57
2023/02/14 14:07:01;;;;;;;5.97;3.22;;;16.10;66.90;;;;;;10452438;28;20029;-56
2023/02/14 14:12:02;;;;;;;5.43;3.40;;;16.10;67.20;;;;;;10487628;28;20114;-56
2023/02/14 14:17:19;;;;;;;4.80;3.55;;;16.00;67.20;;;;;;10469683;28;20458;-57
2023/02/14 14:22:21;;;;;;;5.68;3.28;;;16.10;67.10;;;;;;10488045;28;20082;-57
2023/02/14 14:27:39;;;;;;;4.97;3.08;;;16.10;67.10;;;;;;10477617;28;20040;-56
2023/02/14 14:32:40;;;;;;;7.25;3.13;;;16.10;67.10;;;;;;10478022;28;20048;-57
2023/02/14 14:38:00;;;;;;;5.03;3.03;;;16.10;67.10;;;;;;10487008;28;20052;-56
2023/02/14 14:43:19;;;;;;;4.75;3.63;;;16.00;67.20;;;;;;10466041;28;21527;-57
2023/02/14 14:48:38;;;;;;;7.18;3.30;;;16.00;67.10;;;;;;10476757;28;20427;-57
2023/02/14 14:53:56;;;;;;;8.85;3.70;;;16.00;66.80;;;;;;10475270;28;20075;-57
2023/02/14 14:59:14;;;;;;;6.93;3.72;;;16.00;66.90;;;;;;10495782;28;20017;-58
2023/02/14 15:04:18;;;;;;;11.13;4.05;;;16.00;66.90;;;;;;10457914;28;20050;-57
2023/02/14 15:09:39;;;;;;;8.65;3.92;;;15.90;67.20;;;;;;10481870;28;20111;-61
2023/02/14 15:14:45;;;;;;;8.95;3.67;;;15.90;67.20;;;;;;10477190;28;20025;-56
2023/02/14 15:20:20;;;;;;;10.20;4.68;;;15.90;67.20;;;;;;10474792;28;20017;-57
2023/02/14 15:25:35;;;;;;;9.95;3.80;;;15.80;67.50;;;;;;10479176;28;20028;-57
2023/02/14 15:30:37;;;;;;;13.27;4.95;;;15.80;67.70;;;;;;10461380;28;20051;-56
2023/02/14 15:35:43;;;;;;;10.18;4.60;;;16.10;67.80;;;;;;10473965;28;20056;-58
2023/02/14 15:40:43;;;;;;;10.27;4.38;;;16.00;67.20;;;;;;10482290;28;20017;-55
2023/02/14 15:45:48;;;;;;;12.52;5.15;;;16.00;68.70;;;;;;10491065;28;20021;-57
2023/02/14 15:50:57;;;;;;;17.85;6.13;;;16.00;68.60;;;;;;10493255;28;20237;-57
2023/02/14 15:56:23;;;;;;;10.30;4.72;;;16.00;68.90;;;;;;10465930;28;20035;-57
2023/02/14 16:01:25;;;;;;;15.45;5.35;;;16.00;69.10;;;;;;10481991;28;20044;-57
2023/02/14 16:06:43;;;;;;;7.68;4.50;;;16.00;68.80;;;;;;10494487;28;20021;-57
2023/02/14 16:11:43;;;;;;;13.13;5.10;;;16.10;68.20;;;;;;10497877;28;20032;-55
2023/02/14 16:17:09;;;;;;;17.55;5.25;;;16.20;67.70;;;;;;10438325;28;20022;-57
2023/02/14 16:22:23;;;;;;;16.63;5.70;;;16.30;68.20;;;;;;10474377;28;20021;-57
2023/02/14 16:27:24;;;;;;;13.80;4.93;;;16.20;69.00;;;;;;10454649;28;20025;-57
2023/02/14 16:32:25;;;;;;;11.63;6.18;;;16.20;69.80;;;;;;10473276;28;20564;-57
2023/02/14 16:37:32;;;;;;;15.85;5.57;;;16.20;69.70;;;;;;10476200;28;20029;-57
2023/02/14 16:42:35;;;;;;;7.22;5.88;;;16.30;69.60;;;;;;10489959;28;20777;-57
2023/02/14 16:47:36;;;;;;;11.48;4.75;;;16.00;69.80;;;;;;10471282;28;20091;-57
2023/02/14 16:52:37;;;;;;;11.57;5.57;;;15.80;70.00;;;;;;10453881;28;20171;-56
2023/02/14 16:57:41;;;;;;;64.90;42.45;;;16.20;70.10;;;;;;10500954;28;20680;-57
2023/02/14 17:02:42;;;;;;;27.73;13.50;;;16.50;72.60;;;;;;10472567;28;20468;-57
2023/02/14 17:07:43;;;;;;;18.70;10.52;;;16.50;71.30;;;;;;10448805;28;20024;-57
2023/02/14 17:12:47;;;;;;;16.70;9.65;;;16.40;70.70;;;;;;10481765;28;20545;-56
2023/02/14 17:17:49;;;;;;;22.98;12.80;;;16.30;71.20;;;;;;10470552;28;20539;-58
2023/02/14 17:22:49;;;;;;;23.23;9.63;;;16.20;71.10;;;;;;10470844;28;20021;-57
2023/02/14 17:27:50;;;;;;;24.23;10.68;;;16.10;70.50;;;;;;10470542;28;20025;-56
2023/02/14 17:32:51;;;;;;;23.42;10.88;;;16.00;70.30;;;;;;10488244;28;20496;-57
2023/02/14 17:37:51;;;;;;;17.42;8.75;;;16.00;70.40;;;;;;10464426;28;20103;-57
2023/02/14 17:42:52;;;;;;;37.58;12.40;;;16.00;70.80;;;;;;10486523;28;20141;-56
2023/02/14 17:47:53;;;;;;;38.60;11.68;;;15.90;70.70;;;;;;10484792;28;20031;-58
2023/02/14 17:52:55;;;;;;;29.20;10.18;;;15.80;71.20;;;;;;10483254;28;20515;-57
2023/02/14 17:57:56;;;;;;;24.92;9.52;;;15.70;71.20;;;;;;10465074;28;20660;-58
2023/02/14 18:02:56;;;;;;;23.38;8.98;;;15.70;71.30;;;;;;10469092;28;20139;-57
2023/02/14 18:07:57;;;;;;;18.42;9.82;;;15.70;71.20;;;;;;10468990;28;20610;-57
2023/02/14 18:12:58;;;;;;;15.68;8.40;;;15.60;70.90;;;;;;10502533;28;20114;-55
2023/02/14 18:17:58;;;;;;;21.98;8.57;;;15.60;70.70;;;;;;10468553;28;20055;-56
2023/02/14 18:23:01;;;;;;;17.23;7.97;;;15.50;70.60;;;;;;10469449;28;20052;-57
2023/02/14 18:28:02;;;;;;;19.70;8.90;;;15.50;70.40;;;;;;10468326;28;20115;-57
2023/02/14 18:33:02;;;;;;;20.33;9.05;;;15.50;70.60;;;;;;10488970;28;20041;-56
2023/02/14 18:38:05;;;;;;;14.57;7.65;;;15.50;70.60;;;;;;10486386;28;20020;-57
2023/02/14 18:43:06;;;;;;;17.83;7.07;;;15.50;70.50;;;;;;10484722;28;20055;-56
2023/02/14 18:48:07;;;;;;;11.70;7.00;;;15.50;70.20;;;;;;10471569;28;20475;-56
2023/02/14 18:53:08;;;;;;;15.75;7.05;;;15.50;69.90;;;;;;10482420;28;20029;-56
2023/02/14 18:58:09;;;;;;;12.75;7.15;;;15.50;69.90;;;;;;10488251;28;20013;-55
2023/02/14 19:03:09;;;;;;;13.65;6.88;;;15.60;69.60;;;;;;10485589;28;20111;-57
2023/02/14 19:08:10;;;;;;;15.88;8.40;;;15.60;69.50;;;;;;10500176;28;20458;-57
2023/02/14 19:13:11;;;;;;;15.25;6.95;;;15.50;69.40;;;;;;10493538;28;20861;-56
2023/02/14 19:18:11;;;;;;;12.85;5.95;;;15.60;68.90;;;;;;10496953;28;20042;-57
2023/02/14 19:23:12;;;;;;;13.80;6.60;;;15.60;68.40;;;;;;10532994;28;20107;-57
2023/02/14 19:28:13;;;;;;;16.40;6.72;;;15.70;68.10;;;;;;10514959;28;20105;-58
2023/02/14 19:33:14;;;;;;;9.50;5.75;;;15.80;67.80;;;;;;10532674;28;20127;-55
2023/02/14 19:38:15;;;;;;;11.32;5.72;;;15.90;67.40;;;;;;10530302;28;20025;-57
2023/02/14 19:43:16;;;;;;;10.90;6.75;;;15.90;67.50;;;;;;10514969;28;20039;-57
2023/02/14 19:48:17;;;;;;;10.07;5.55;;;15.90;67.70;;;;;;10495484;28;20050;-56
2023/02/14 19:53:18;;;;;;;9.07;6.10;;;15.80;67.70;;;;;;10514221;28;20602;-57
2023/02/14 19:58:18;;;;;;;12.25;9.50;;;15.80;67.20;;;;;;10504060;28;20051;-56
2023/02/14 20:03:19;;;;;;;12.40;6.40;;;15.80;67.40;;;;;;10514359;28;20647;-57
2023/02/14 20:08:20;;;;;;;11.52;6.38;;;15.90;67.90;;;;;;10514265;28;20214;-58
2023/02/14 20:13:21;;;;;;;9.98;6.80;;;15.90;67.40;;;;;;10532452;28;20028;-58
2023/02/14 20:18:21;;;;;;;10.98;7.03;;;15.80;67.60;;;;;;10500359;28;20052;-58
2023/02/14 20:23:22;;;;;;;9.15;6.00;;;15.70;67.60;;;;;;10494233;28;20111;-58
2023/02/14 20:28:23;;;;;;;12.45;6.40;;;15.70;67.70;;;;;;10492854;28;20119;-58
2023/02/14 20:33:23;;;;;;;9.15;6.05;;;15.70;67.70;;;;;;10513189;28;20044;-58
2023/02/14 20:38:24;;;;;;;10.05;7.22;;;15.60;67.70;;;;;;10513945;28;20024;-58
2023/02/14 20:43:25;;;;;;;10.20;6.40;;;15.50;67.70;;;;;;10512311;28;20012;-58
2023/02/14 20:48:28;;;;;;;11.82;5.65;;;15.50;67.80;;;;;;10513156;28;20077;-59
2023/02/14 20:53:32;;;;;;;8.10;5.85;;;15.40;68.30;;;;;;10530170;28;20454;-58
2023/02/14 20:58:34;;;;;;;10.38;6.47;;;15.30;68.50;;;;;;10513142;28;20077;-58
2023/02/14 21:03:36;;;;;;;7.93;5.97;;;15.30;68.50;;;;;;10512669;28;20111;-58
2023/02/14 21:08:37;;;;;;;8.60;6.63;;;15.30;68.50;;;;;;10495726;28;20693;-58
2023/02/14 21:13:38;;;;;;;7.53;5.97;;;15.20;68.50;;;;;;10512169;28;20059;-57
2023/02/14 21:18:39;;;;;;;10.23;6.82;;;15.20;68.60;;;;;;10499333;28;20015;-56
2023/02/14 21:23:40;;;;;;;10.05;6.05;;;15.20;68.50;;;;;;10511896;28;20034;-57
2023/02/14 21:28:42;;;;;;;11.57;6.63;;;15.20;68.60;;;;;;10528674;28;20507;-58
2023/02/14 21:33:43;;;;;;;8.20;5.93;;;15.10;68.50;;;;;;10510907;28;20159;-58
2023/02/14 21:38:44;;;;;;;8.77;6.55;;;15.10;68.60;;;;;;10491021;28;20020;-57
2023/02/14 21:43:48;;;;;;;7.38;5.97;;;15.10;68.70;;;;;;10492283;28;20625;-58
2023/02/14 21:54:09;;;;;;;8.98;6.07;;;15.00;68.60;;;;;;10528695;28;20036;-58
2023/02/14 21:59:11;;;;;;;8.13;6.47;;;15.00;68.60;;;;;;10468198;28;20016;-57
2023/02/14 22:04:12;;;;;;;8.82;5.72;;;15.00;68.50;;;;;;10529731;28;20020;-58
2023/02/14 22:09:13;;;;;;;8.23;5.75;;;14.90;68.30;;;;;;10511330;28;20009;-58
2023/02/14 22:14:14;;;;;;;8.18;7.03;;;15.00;68.40;;;;;;10510914;28;20043;-57
2023/02/14 22:19:15;;;;;;;6.45;5.28;;;14.90;68.40;;;;;;10528894;28;20349;-58
2023/02/14 22:24:16;;;;;;;8.40;5.80;;;14.90;68.40;;;;;;10510837;28;20028;-57
2023/02/14 22:29:17;;;;;;;9.30;6.25;;;14.90;68.40;;;;;;10528442;28;20095;-59
2023/02/14 22:34:18;;;;;;;7.72;5.40;;;14.90;68.40;;;;;;10510662;28;20712;-58
2023/02/14 22:39:19;;;;;;;7.32;5.65;;;14.90;68.30;;;;;;10528373;28;20011;-58
2023/02/14 22:44:19;;;;;;;6.57;5.45;;;14.90;68.30;;;;;;10499028;28;20056;-56
2023/02/14 22:49:20;;;;;;;7.47;5.32;;;14.80;68.30;;;;;;10491235;28;20032;-57
2023/02/14 22:54:21;;;;;;;6.68;4.82;;;14.80;68.30;;;;;;10535995;28;20032;-58
2023/02/14 22:59:24;;;;;;;6.65;5.30;;;14.80;68.30;;;;;;10517462;28;20018;-57
2023/02/14 23:04:25;;;;;;;7.28;6.15;;;14.80;68.20;;;;;;10497943;28;20471;-57
2023/02/14 23:09:27;;;;;;;7.15;5.70;;;14.80;68.20;;;;;;10517045;28;20020;-57
2023/02/14 23:25:09;;;;;;;8.63;5.03;;;14.70;68.00;;;;;;10519810;28;20036;-58
2023/02/14 23:30:16;;;;;;;6.20;5.50;;;14.70;67.90;;;;;;10490891;28;20081;-57
2023/02/14 23:35:17;;;;;;;6.18;4.75;;;14.70;67.90;;;;;;10499237;28;20590;-57
2023/02/14 23:40:18;;;;;;;6.45;5.25;;;14.70;67.90;;;;;;10513692;28;20013;-61
2023/02/14 23:45:33;;;;;;;6.13;4.97;;;14.70;67.90;;;;;;10532365;28;20044;-57
2023/02/14 23:50:34;;;;;;;7.40;4.82;;;14.70;67.90;;;;;;10514318;28;20360;-58
2023/02/14 23:55:35;;;;;;;6.85;5.40;;;14.60;67.80;;;;;;10514589;28;20115;-58
